Shepard, North Dakota
Current Conditions -  °F | °C
As of 4:15 AM on Thursday 29 Jan 2015 (Local Time) from KBAC Reporting Station
Overcast Overcast  
Wind Chill: 11°   Ceiling: 1600
Heat Index: 25°   Visibility: 10mi
Dew Point: 25°   Wind: 18mph
Humidity: 100%   Direction: 330°NNW
Pressure: 30.24"   Gusts: 26mph
Location:  47.4507°N, 98.2031°W
Report Text: KBAC 291015Z AUTO 33016G23KT 10SM OVC016 M04/M04 A3024 RMK AO2
Loading
Personal Weather Stations






























Interactive Weather Map New forecast layout! Learn more

10-Day Weather Forecast

Advertisements
Track Severe Weather on mobile